createdAt,value
2018-03-23T00:00:32.933Z,17.52
2018-03-23T00:02:59.548Z,16.92
2018-03-23T00:05:26.407Z,16.17
2018-03-23T00:07:53.552Z,25.35
2018-03-23T00:10:20.396Z,15.52
2018-03-23T00:12:47.276Z,16.30
2018-03-23T00:15:14.097Z,15.75
2018-03-23T00:17:41.175Z,15.20
2018-03-23T00:20:08.274Z,17.03
2018-03-23T00:22:35.109Z,17.83
2018-03-23T00:25:02.268Z,17.30
2018-03-23T00:27:29.132Z,17.40
2018-03-23T00:29:56.103Z,17.77
2018-03-23T00:32:22.952Z,15.93
2018-03-23T00:34:49.805Z,16.27
2018-03-23T00:37:16.641Z,17.50
2018-03-23T00:39:43.959Z,17.17
2018-03-23T00:42:10.877Z,15.75
2018-03-23T00:44:37.923Z,16.15
2018-03-23T00:47:04.719Z,17.17
2018-03-23T00:49:31.818Z,16.37
2018-03-23T00:51:58.765Z,18.15
2018-03-23T00:54:25.813Z,17.80
2018-03-23T00:56:52.630Z,17.50
2018-03-23T00:59:19.418Z,15.83
2018-03-23T01:01:46.247Z,16.48
2018-03-23T01:04:13.395Z,16.20
2018-03-23T01:06:40.295Z,15.13
2018-03-23T01:09:07.124Z,15.43
2018-03-23T01:11:34.235Z,15.43
2018-03-23T01:14:01.057Z,15.70
2018-03-23T01:16:27.917Z,18.90
2018-03-23T01:18:54.759Z,18.00
2018-03-23T01:21:21.916Z,19.40
2018-03-23T01:23:49.067Z,18.37
2018-03-23T01:26:15.933Z,18.10
2018-03-23T01:28:42.755Z,16.65
2018-03-23T01:31:09.899Z,15.77
2018-03-23T01:33:36.743Z,15.23
2018-03-23T01:36:03.898Z,17.40
2018-03-23T01:38:31.044Z,17.27
2018-03-23T01:40:57.920Z,17.50
2018-03-23T01:43:24.790Z,19.30
2018-03-23T01:45:51.640Z,18.30
2018-03-23T01:48:18.483Z,17.70
2018-03-23T01:50:45.536Z,17.20
2018-03-23T01:53:18.457Z,15.95
2018-03-23T01:55:45.328Z,15.77
2018-03-23T01:58:12.196Z,16.00
2018-03-23T02:00:39.048Z,16.60
2018-03-23T02:03:06.243Z,17.17
2018-03-23T02:05:33.113Z,16.92
2018-03-23T02:08:00.434Z,16.75
2018-03-23T02:10:27.280Z,15.47
2018-03-23T02:12:54.434Z,16.10
2018-03-23T02:15:21.274Z,18.40
2018-03-23T02:17:48.121Z,18.13
2018-03-23T02:20:14.960Z,18.83
2018-03-23T02:22:41.805Z,19.60
2018-03-23T02:25:08.648Z,18.60
2018-03-23T02:27:35.506Z,25.65
2018-03-23T02:30:02.539Z,19.67
2018-03-23T02:32:29.638Z,20.15
2018-03-23T02:34:56.485Z,20.92
2018-03-23T02:37:23.582Z,19.92
2018-03-23T02:39:50.432Z,18.62
2018-03-23T02:42:17.262Z,18.73
2018-03-23T02:44:44.112Z,18.15
2018-03-23T02:47:10.994Z,19.80
2018-03-23T02:49:37.831Z,18.92
2018-03-23T02:52:04.668Z,18.33
2018-03-23T02:54:31.512Z,17.75
2018-03-23T02:56:58.429Z,18.90
2018-03-23T02:59:25.274Z,18.13
2018-03-23T03:01:52.137Z,17.10
2018-03-23T03:04:18.996Z,18.87
2018-03-23T03:06:45.836Z,18.12
2018-03-23T03:09:12.688Z,20.62
2018-03-23T03:11:39.530Z,20.60
2018-03-23T03:14:06.741Z,21.27
2018-03-23T03:16:33.571Z,20.00
2018-03-23T03:19:00.413Z,21.15
2018-03-23T03:21:27.301Z,20.05
2018-03-23T03:23:54.130Z,19.60
2018-03-23T03:26:20.954Z,20.08
2018-03-23T03:28:48.027Z,17.52
2018-03-23T03:31:14.889Z,16.70
2018-03-23T03:33:41.707Z,17.00
2018-03-23T03:36:08.549Z,17.13
2018-03-23T03:38:35.391Z,17.40
2018-03-23T03:41:02.236Z,17.30
2018-03-23T03:43:29.116Z,18.20
2018-03-23T03:45:55.935Z,17.50
2018-03-23T03:48:22.792Z,16.27
2018-03-23T03:50:49.894Z,18.92
2018-03-23T03:53:16.719Z,16.92
2018-03-23T03:55:43.597Z,18.73
2018-03-23T03:58:10.448Z,21.10
2018-03-23T04:00:37.267Z,17.92
2018-03-23T04:03:04.085Z,18.08
2018-03-23T04:05:31.273Z,18.67
2018-03-23T04:07:58.524Z,17.20
2018-03-23T04:10:25.355Z,16.40
2018-03-23T04:12:52.250Z,19.83
2018-03-23T04:15:19.105Z,16.90
2018-03-23T04:17:46.215Z,17.05
2018-03-23T04:20:13.087Z,16.40
2018-03-23T04:22:40.191Z,16.25
2018-03-23T04:25:07.030Z,17.42
2018-03-23T04:27:33.917Z,16.92
2018-03-23T04:30:00.784Z,16.73
2018-03-23T04:32:27.652Z,17.25
2018-03-23T04:34:54.506Z,16.50
2018-03-23T04:37:21.660Z,16.92
2018-03-23T04:39:48.812Z,16.30
2018-03-23T04:42:15.660Z,16.30
2018-03-23T04:44:42.503Z,16.30
2018-03-23T04:47:09.339Z,16.20
2018-03-23T04:49:36.779Z,13.55
2018-03-23T04:52:03.629Z,14.60
2018-03-23T04:54:30.449Z,13.52
2018-03-23T04:56:57.292Z,14.02
2018-03-23T04:59:24.148Z,13.52
2018-03-23T05:01:50.970Z,14.30
2018-03-23T05:04:17.816Z,13.38
2018-03-23T05:06:44.669Z,13.65
2018-03-23T05:09:11.852Z,14.87
2018-03-23T05:11:38.744Z,13.98
2018-03-23T05:14:05.616Z,12.48
2018-03-23T05:16:32.800Z,12.18
2018-03-23T05:18:59.676Z,12.00
2018-03-23T05:21:26.507Z,14.55
2018-03-23T05:23:53.331Z,12.63
2018-03-23T05:26:20.474Z,12.45
2018-03-23T05:28:47.332Z,11.90
2018-03-23T05:31:14.463Z,12.23
2018-03-23T05:33:41.617Z,11.95
2018-03-23T05:36:08.472Z,11.50
2018-03-23T05:38:35.291Z,11.30
2018-03-23T05:41:02.177Z,10.38
2018-03-23T05:43:29.095Z,11.82
2018-03-23T05:45:55.965Z,12.77
2018-03-23T05:48:22.836Z,13.77
2018-03-23T05:50:50.032Z,13.88
2018-03-23T05:53:16.918Z,12.50
2018-03-23T05:55:44.028Z,14.70
2018-03-23T05:58:11.173Z,13.30
2018-03-23T06:00:38.022Z,11.60
2018-03-23T06:03:04.932Z,10.82
2018-03-23T06:05:31.793Z,11.00
2018-03-23T06:07:58.956Z,10.13
2018-03-23T06:10:25.840Z,10.73
2018-03-23T06:12:52.658Z,9.63
2018-03-23T06:15:19.787Z,9.80
2018-03-23T06:17:46.623Z,9.00
2018-03-23T06:20:13.454Z,7.82
2018-03-23T06:22:40.531Z,7.12
2018-03-23T06:25:07.411Z,6.97
2018-03-23T06:27:34.235Z,7.87
2018-03-23T06:30:01.054Z,7.70
2018-03-23T06:32:27.903Z,6.90
2018-03-23T06:34:54.718Z,6.72
2018-03-23T06:37:21.566Z,7.22
2018-03-23T06:39:48.432Z,6.67
2018-03-23T06:42:15.235Z,7.25
2018-03-23T06:44:42.049Z,7.15
2018-03-23T06:47:08.942Z,7.03
2018-03-23T06:49:35.769Z,7.30
2018-03-23T06:52:02.610Z,7.47
2018-03-23T06:54:29.701Z,7.60
2018-03-23T06:56:56.531Z,7.18
2018-03-23T06:59:23.350Z,7.10
2018-03-23T07:01:50.188Z,7.55
2018-03-23T07:04:17.050Z,7.53
2018-03-23T07:06:43.901Z,7.50
2018-03-23T07:09:10.754Z,7.10
2018-03-23T07:11:37.533Z,7.62
2018-03-23T07:14:04.393Z,7.80
2018-03-23T07:16:31.191Z,8.07
2018-03-23T07:18:58.111Z,8.35
2018-03-23T07:21:24.934Z,9.20
2018-03-23T07:23:51.778Z,9.60
2018-03-23T07:26:18.581Z,10.35
2018-03-23T07:28:45.430Z,10.25
2018-03-23T07:31:12.265Z,10.23
2018-03-23T07:33:39.070Z,10.68
2018-03-23T07:36:05.894Z,11.30
2018-03-23T07:38:32.745Z,10.80
2018-03-23T07:40:59.697Z,8.90
2018-03-23T07:43:26.511Z,9.48
2018-03-23T07:45:53.354Z,9.40
2018-03-23T07:48:20.154Z,8.88
2018-03-23T07:50:47.034Z,8.02
2018-03-23T07:53:13.886Z,8.30
2018-03-23T07:55:40.679Z,7.70
2018-03-23T07:58:07.546Z,7.82
2018-03-23T08:00:34.389Z,7.25
2018-03-23T08:03:01.327Z,6.82
2018-03-23T08:05:28.102Z,6.90
2018-03-23T08:07:55.065Z,6.60
2018-03-23T08:10:21.870Z,6.37
2018-03-23T08:12:48.710Z,6.15
2018-03-23T08:15:15.814Z,7.40
2018-03-23T08:17:42.635Z,9.00
2018-03-23T08:20:09.434Z,9.85
2018-03-23T08:22:36.546Z,9.68
2018-03-23T08:25:03.594Z,8.15
2018-03-23T08:27:30.419Z,9.02
2018-03-23T08:29:57.438Z,6.82
2018-03-23T08:32:24.258Z,6.03
2018-03-23T08:34:51.379Z,5.50
2018-03-23T08:37:18.245Z,5.90
2018-03-23T08:39:45.131Z,5.22
2018-03-23T08:42:11.935Z,5.80
2018-03-23T08:44:39.074Z,6.45
2018-03-23T08:47:05.850Z,5.93
2018-03-23T08:49:32.946Z,5.60
2018-03-23T08:52:00.015Z,5.50
2018-03-23T08:54:26.801Z,6.00
2018-03-23T08:56:53.634Z,5.53
2018-03-23T08:59:20.661Z,5.87
2018-03-23T09:01:47.485Z,5.70
2018-03-23T09:04:14.302Z,5.72
2018-03-23T09:06:41.080Z,6.57
2018-03-23T09:09:07.947Z,5.13
2018-03-23T09:11:35.047Z,5.62
2018-03-23T09:14:01.935Z,6.10
2018-03-23T09:16:28.722Z,6.40
2018-03-23T09:18:55.514Z,5.93
2018-03-23T09:21:22.330Z,6.00
2018-03-23T09:23:49.154Z,6.60
2018-03-23T09:26:15.975Z,6.90
2018-03-23T09:28:42.790Z,6.90
2018-03-23T09:31:10.086Z,7.27
2018-03-23T09:33:36.851Z,6.70
2018-03-23T09:36:03.637Z,6.60
2018-03-23T09:38:30.730Z,6.97
2018-03-23T09:40:57.777Z,7.12
2018-03-23T09:43:24.558Z,7.20
2018-03-23T09:45:51.357Z,7.10
2018-03-23T09:48:18.145Z,9.88
2018-03-23T09:50:44.984Z,7.20
2018-03-23T09:53:12.404Z,7.50
2018-03-23T09:55:39.199Z,7.97
2018-03-23T09:58:05.970Z,8.07
2018-03-23T10:00:32.811Z,7.35
2018-03-23T10:02:59.642Z,7.87
2018-03-23T10:05:26.502Z,7.78
2018-03-23T10:07:53.249Z,8.35
2018-03-23T10:10:20.420Z,8.43
2018-03-23T10:12:47.569Z,8.18
2018-03-23T10:15:14.514Z,8.60
2018-03-23T10:17:41.315Z,9.00
2018-03-23T10:20:08.402Z,8.55
2018-03-23T10:22:35.210Z,7.78
2018-03-23T10:25:02.401Z,7.63
2018-03-23T10:27:29.446Z,8.50
2018-03-23T10:29:56.280Z,8.90
2018-03-23T10:32:23.329Z,8.00
2018-03-23T10:34:50.125Z,8.52
2018-03-23T10:37:17.229Z,8.43
2018-03-23T10:39:44.023Z,7.82
2018-03-23T10:42:10.854Z,7.63
2018-03-23T10:44:37.679Z,8.10
2018-03-23T10:47:04.493Z,8.52
2018-03-23T10:49:31.327Z,8.32
2018-03-23T10:51:58.140Z,8.82
2018-03-23T10:54:25.243Z,8.70
2018-03-23T10:56:52.030Z,8.35
2018-03-23T10:59:18.847Z,9.37
2018-03-23T11:01:45.641Z,8.60
2018-03-23T11:04:12.463Z,7.90
2018-03-23T11:06:39.273Z,8.30
2018-03-23T11:09:06.066Z,8.23
2018-03-23T11:11:33.130Z,7.80
2018-03-23T11:13:59.943Z,8.50
2018-03-23T11:16:27.026Z,8.50
2018-03-23T11:18:53.822Z,8.27
2018-03-23T11:21:20.622Z,8.93
2018-03-23T11:23:47.757Z,8.30
2018-03-23T11:26:14.588Z,8.60
2018-03-23T11:28:41.411Z,8.52
2018-03-23T11:31:08.375Z,9.18
2018-03-23T11:33:35.333Z,9.13
2018-03-23T11:36:02.497Z,8.73
2018-03-23T11:38:29.648Z,8.68
2018-03-23T11:40:56.478Z,8.88
2018-03-23T11:43:23.298Z,9.30
2018-03-23T11:45:50.141Z,10.55
2018-03-23T11:48:17.327Z,9.90
2018-03-23T11:50:44.208Z,8.90
2018-03-23T11:53:10.987Z,9.17
2018-03-23T11:55:38.762Z,8.70
2018-03-23T11:58:05.582Z,8.70
2018-03-23T12:00:32.535Z,9.05
2018-03-23T12:02:59.543Z,8.43
2018-03-23T12:05:26.555Z,8.35
2018-03-23T12:07:53.342Z,8.05
2018-03-23T12:10:20.166Z,8.10
2018-03-23T12:12:46.949Z,7.35
2018-03-23T12:15:13.758Z,7.70
2018-03-23T12:17:40.578Z,7.40
2018-03-23T12:20:07.383Z,7.00
2018-03-23T12:22:34.175Z,7.50
2018-03-23T12:25:01.051Z,7.85
2018-03-23T12:27:27.915Z,7.10
2018-03-23T12:29:54.950Z,7.50
2018-03-23T12:32:21.897Z,6.70
2018-03-23T12:34:48.781Z,7.45
2018-03-23T12:37:15.817Z,8.23
2018-03-23T12:39:42.602Z,8.60
2018-03-23T12:42:09.688Z,8.02
2018-03-23T12:44:36.471Z,6.95
2018-03-23T12:47:03.603Z,6.30
2018-03-23T12:49:30.494Z,6.50
2018-03-23T12:51:57.315Z,6.45
2018-03-23T12:54:24.118Z,6.45
2018-03-23T12:56:51.139Z,6.15
2018-03-23T12:59:18.225Z,6.32
2018-03-23T13:01:45.033Z,6.28
2018-03-23T13:04:11.850Z,5.87
2018-03-23T13:06:38.957Z,5.90
2018-03-23T13:09:05.773Z,6.32
2018-03-23T13:11:32.854Z,6.00
2018-03-23T13:13:59.641Z,6.20
2018-03-23T13:16:26.429Z,6.20
2018-03-23T13:18:53.210Z,5.82
2018-03-23T13:21:20.332Z,5.82
2018-03-23T13:23:47.125Z,5.62
2018-03-23T13:26:14.224Z,5.70
2018-03-23T13:28:41.009Z,6.20
2018-03-23T13:31:08.049Z,5.80
2018-03-23T13:33:34.823Z,5.60
2018-03-23T13:36:01.651Z,5.20
2018-03-23T13:38:28.475Z,7.22
2018-03-23T13:40:55.280Z,7.47
2018-03-23T13:43:22.115Z,5.50
2018-03-23T13:45:49.166Z,5.30
2018-03-23T13:48:15.963Z,5.60
2018-03-23T13:50:43.058Z,5.35
2018-03-23T13:53:09.868Z,5.70
2018-03-23T13:55:36.953Z,5.30
2018-03-23T13:58:03.998Z,4.75
2018-03-23T14:00:31.154Z,5.37
2018-03-23T14:02:57.983Z,5.37
2018-03-23T14:05:24.763Z,5.25
2018-03-23T14:07:51.595Z,9.75
2018-03-23T14:10:18.378Z,5.75
2018-03-23T14:12:45.579Z,5.00
2018-03-23T14:15:12.368Z,4.93
2018-03-23T14:17:39.182Z,4.97
2018-03-23T14:20:06.308Z,4.72
2018-03-23T14:22:33.100Z,4.30
2018-03-23T14:24:59.873Z,4.50
2018-03-23T14:27:26.939Z,4.37
2018-03-23T14:29:53.740Z,4.10
2018-03-23T14:32:20.568Z,4.20
2018-03-23T14:34:47.395Z,4.50
2018-03-23T14:37:14.519Z,3.80
2018-03-23T14:39:41.672Z,4.40
2018-03-23T14:42:08.819Z,4.30
2018-03-23T14:44:35.972Z,4.05
2018-03-23T14:47:03.123Z,4.00
2018-03-23T14:49:30.169Z,4.00
2018-03-23T14:51:57.319Z,3.80
2018-03-23T14:54:24.117Z,4.05
2018-03-23T14:56:51.203Z,4.07
2018-03-23T14:59:18.562Z,3.90
2018-03-23T15:01:45.605Z,3.70
2018-03-23T15:04:12.435Z,4.10
2018-03-23T15:06:39.524Z,3.70
2018-03-23T15:09:06.653Z,4.00
2018-03-23T15:11:33.474Z,4.00
2018-03-23T15:14:06.124Z,3.65
2018-03-23T15:16:33.223Z,3.75
2018-03-23T15:19:00.048Z,3.70
2018-03-23T15:21:27.110Z,3.70
2018-03-23T15:23:53.936Z,3.60
2018-03-23T15:26:20.751Z,3.70
2018-03-23T15:28:47.583Z,3.28
2018-03-23T15:31:14.585Z,3.50
2018-03-23T15:33:41.378Z,3.60
2018-03-23T15:36:08.159Z,3.40
2018-03-23T15:38:34.966Z,3.65
2018-03-23T15:41:01.749Z,3.62
2018-03-23T15:43:28.911Z,4.30
2018-03-23T15:45:55.694Z,5.00
2018-03-23T15:48:22.800Z,5.00
2018-03-23T15:50:49.607Z,5.30
2018-03-23T15:53:16.795Z,5.00
2018-03-23T15:55:43.577Z,4.78
2018-03-23T15:58:10.687Z,4.60
2018-03-23T16:00:37.730Z,4.60
2018-03-23T16:03:04.521Z,4.00
2018-03-23T16:05:31.339Z,4.43
2018-03-23T16:07:58.155Z,6.20
2018-03-23T16:10:24.949Z,6.45
2018-03-23T16:12:51.775Z,6.80
2018-03-23T16:15:18.892Z,6.87
2018-03-23T16:17:46.051Z,5.40
2018-03-23T16:20:12.875Z,5.00
2018-03-23T16:22:39.734Z,4.95
2018-03-23T16:25:06.518Z,5.40
2018-03-23T16:27:33.298Z,5.40
2018-03-23T16:30:00.132Z,5.40
2018-03-23T16:32:26.935Z,5.05
2018-03-23T16:34:53.740Z,5.40
2018-03-23T16:37:20.550Z,5.10
2018-03-23T16:39:47.338Z,5.10
2018-03-23T16:42:14.370Z,4.43
2018-03-23T16:44:41.192Z,5.07
2018-03-23T16:47:07.986Z,5.00
2018-03-23T16:49:34.790Z,4.80
2018-03-23T16:52:01.570Z,4.85
2018-03-23T16:54:28.794Z,5.20
2018-03-23T16:56:55.949Z,5.00
2018-03-23T16:59:22.990Z,5.00
2018-03-23T17:01:49.790Z,5.15
2018-03-23T17:04:16.831Z,4.75
2018-03-23T17:06:43.705Z,5.50
2018-03-23T17:09:10.778Z,5.40
2018-03-23T17:11:37.616Z,4.90
2018-03-23T17:14:04.415Z,4.90
2018-03-23T17:16:31.515Z,5.20
2018-03-23T17:18:58.563Z,4.70
2018-03-23T17:21:25.602Z,5.20
2018-03-23T17:23:52.733Z,5.20
2018-03-23T17:26:19.623Z,5.60
2018-03-23T17:28:47.418Z,5.70
2018-03-23T17:31:15.247Z,6.30
2018-03-23T17:33:43.153Z,6.20
2018-03-23T17:36:12.621Z,6.30
2018-03-23T17:38:39.642Z,6.90
2018-03-23T17:41:07.305Z,7.30
2018-03-23T17:43:36.622Z,7.85
2018-03-23T17:46:04.881Z,12.00
2018-03-23T17:48:33.825Z,13.07
2018-03-23T17:51:04.251Z,8.95
2018-03-23T17:53:36.312Z,10.30
2018-03-23T17:56:06.706Z,13.10
2018-03-23T17:58:37.133Z,10.88
2018-03-23T18:01:04.002Z,17.52
2018-03-23T18:03:30.848Z,17.87
2018-03-23T18:05:58.256Z,16.25
2018-03-23T18:08:25.172Z,13.93
2018-03-23T18:10:52.008Z,14.80
2018-03-23T18:13:19.205Z,13.60
2018-03-23T18:15:46.498Z,20.90
2018-03-23T18:18:14.004Z,25.45
2018-03-23T18:20:42.307Z,13.38
2018-03-23T18:23:10.152Z,9.80
2018-03-23T18:25:37.082Z,12.15
2018-03-23T18:28:03.892Z,14.60
2018-03-23T18:30:31.275Z,10.80
2018-03-23T18:32:58.468Z,14.10
2018-03-23T18:35:25.266Z,21.62
2018-03-23T18:37:52.654Z,24.52
2018-03-23T18:40:20.193Z,14.07
2018-03-23T18:42:50.863Z,19.42
2018-03-23T18:45:18.583Z,18.27
2018-03-23T18:47:47.008Z,15.80
2018-03-23T18:50:14.453Z,16.37
2018-03-23T18:52:41.305Z,33.40
2018-03-23T18:55:08.255Z,19.37
2018-03-23T18:57:36.329Z,11.65
2018-03-23T19:00:03.506Z,19.85
2018-03-23T19:02:30.451Z,19.42
2018-03-23T19:04:57.270Z,15.65
2018-03-23T19:07:24.123Z,13.82
2018-03-23T19:09:51.063Z,16.05
2018-03-23T19:12:18.259Z,10.88
2018-03-23T19:14:45.111Z,9.77
2018-03-23T19:17:11.962Z,9.50
2018-03-23T19:19:38.769Z,9.80
2018-03-23T19:22:06.002Z,10.27
2018-03-23T19:24:32.822Z,11.93
2018-03-23T19:26:59.633Z,8.90
2018-03-23T19:29:26.451Z,8.45
2018-03-23T19:31:53.251Z,7.75
2018-03-23T19:34:20.070Z,7.12
2018-03-23T19:36:46.916Z,7.90
2018-03-23T19:39:13.992Z,8.70
2018-03-23T19:41:40.782Z,8.33
2018-03-23T19:44:07.878Z,9.35
2018-03-23T19:46:34.872Z,9.20
2018-03-23T19:49:01.723Z,7.73
2018-03-23T19:51:28.820Z,7.50
2018-03-23T19:53:55.655Z,8.10
2018-03-23T19:56:22.484Z,8.60
2018-03-23T19:58:50.399Z,7.87
2018-03-23T20:01:17.527Z,7.60
2018-03-23T20:03:44.609Z,7.60
2018-03-23T20:06:11.431Z,7.62
2018-03-23T20:08:38.456Z,7.28
2018-03-23T20:11:05.386Z,7.18
2018-03-23T20:13:32.185Z,7.07
2018-03-23T20:15:59.290Z,7.00
2018-03-23T20:18:26.406Z,8.30
2018-03-23T20:20:53.231Z,7.68
2018-03-23T20:23:20.034Z,8.15
2018-03-23T20:25:46.823Z,8.40
2018-03-23T20:28:13.662Z,8.73
2018-03-23T20:30:40.471Z,8.25
2018-03-23T20:33:07.331Z,9.07
2018-03-23T20:35:34.138Z,10.05
2018-03-23T20:38:01.060Z,9.20
2018-03-23T20:40:27.880Z,9.60
2018-03-23T20:42:54.710Z,9.60
2018-03-23T20:45:21.531Z,9.02
2018-03-23T20:47:48.547Z,9.50
2018-03-23T20:50:15.371Z,9.55
2018-03-23T20:52:42.234Z,9.30
2018-03-23T20:55:09.131Z,9.33
2018-03-23T20:57:36.004Z,9.35
2018-03-23T21:00:02.866Z,8.98
2018-03-23T21:02:29.727Z,9.43
2018-03-23T21:04:56.506Z,8.93
2018-03-23T21:07:23.322Z,8.40
2018-03-23T21:09:50.140Z,9.52
2018-03-23T21:12:17.407Z,9.88
2018-03-23T21:14:44.850Z,8.70
2018-03-23T21:17:11.709Z,8.33
2018-03-23T21:19:38.518Z,8.00
2018-03-23T21:22:05.459Z,8.07
2018-03-23T21:24:32.312Z,8.70
2018-03-23T21:26:59.237Z,7.90
2018-03-23T21:29:26.059Z,7.90
2018-03-23T21:31:52.881Z,7.80
2018-03-23T21:34:20.024Z,7.70
2018-03-23T21:36:46.839Z,7.90
2018-03-23T21:39:13.679Z,8.60
2018-03-23T21:41:40.502Z,8.05
2018-03-23T21:44:07.560Z,7.40
2018-03-23T21:46:34.377Z,7.03
2018-03-23T21:49:01.199Z,7.72
2018-03-23T21:51:28.028Z,7.10
2018-03-23T21:53:54.947Z,7.40
2018-03-23T21:56:21.785Z,7.00
2018-03-23T21:58:49.187Z,7.23
2018-03-23T22:01:16.322Z,7.43
2018-03-23T22:03:43.175Z,7.50
2018-03-23T22:06:09.950Z,7.32
2018-03-23T22:08:36.802Z,7.00
2018-03-23T22:11:03.578Z,7.20
2018-03-23T22:13:30.439Z,6.90
2018-03-23T22:15:57.162Z,6.37
2018-03-23T22:18:24.004Z,7.05
2018-03-23T22:20:50.790Z,7.05
2018-03-23T22:23:17.619Z,7.30
2018-03-23T22:25:44.618Z,7.87
2018-03-23T22:28:11.451Z,8.05
2018-03-23T22:30:38.247Z,7.93
2018-03-23T22:33:05.070Z,8.13
2018-03-23T22:35:31.970Z,9.17
2018-03-23T22:37:58.891Z,8.90
2018-03-23T22:40:26.119Z,9.50
2018-03-23T22:42:53.271Z,9.70
2018-03-23T22:45:20.426Z,9.07
2018-03-23T22:47:47.215Z,10.10
2018-03-23T22:50:14.037Z,10.10
2018-03-23T22:52:40.875Z,10.32
2018-03-23T22:55:08.003Z,10.85
2018-03-23T22:57:34.833Z,11.50
2018-03-23T23:00:01.992Z,11.05
2018-03-23T23:02:28.835Z,11.43
2018-03-23T23:04:55.670Z,11.40
2018-03-23T23:07:22.495Z,12.30
2018-03-23T23:09:49.294Z,12.50
2018-03-23T23:12:16.118Z,11.90
2018-03-23T23:14:42.923Z,11.67
2018-03-23T23:17:09.718Z,11.90
2018-03-23T23:19:36.553Z,11.77
2018-03-23T23:22:03.378Z,11.63
2018-03-23T23:24:30.198Z,11.85
2018-03-23T23:26:57.036Z,11.15
2018-03-23T23:29:23.863Z,11.35
2018-03-23T23:31:50.674Z,11.93
2018-03-23T23:34:17.696Z,11.02
2018-03-23T23:36:44.511Z,12.60
2018-03-23T23:39:11.318Z,11.10
2018-03-23T23:41:38.199Z,11.90
2018-03-23T23:44:05.053Z,12.80
2018-03-23T23:46:31.875Z,13.40
2018-03-23T23:48:58.749Z,12.63
2018-03-23T23:51:25.797Z,13.48
2018-03-23T23:53:53.037Z,14.50
2018-03-23T23:56:19.847Z,15.00
2018-03-23T23:58:46.944Z,14.25
